Time;durP1;ratioP1;P1;durP2;ratioP2;P2;SDS_P1;SDS_P2;PMS_P1;PMS_P2;Temp;Humidity;BMP_temperature;BMP_pressure;BME280_temperature;BME280_humidity;BME280_pressure;Samples;Min_cycle;Max_cycle;Signal;HPM_P1;HPM_P2
2021/12/10 00:31:47;;;;;;;24.65;17.02;;;;;;;4.12;85.19;93440.61;837037;70;32834;-79
2021/12/10 02:16:24;;;;;;;14.47;11.12;;;;;;;4.46;87.74;93359.27;833324;71;33655;-79
2021/12/10 02:31:42;;;;;;;17.98;13.48;;;;;;;4.57;88.34;93340.44;828161;71;33757;-79
2021/12/10 03:31:48;;;;;;;18.50;11.88;;;;;;;4.87;89.27;93360.61;830522;71;31988;-80
2021/12/10 03:46:40;;;;;;;19.17;11.75;;;;;;;4.96;89.30;93374.52;833313;71;31870;-80
2021/12/10 04:16:08;;;;;;;12.70;9.03;;;;;;;5.30;89.11;93373.55;827730;71;28832;-77
2021/12/10 04:31:12;;;;;;;11.88;8.20;;;;;;;5.28;88.84;93376.42;833403;71;31474;-77
2021/12/10 04:46:15;;;;;;;12.93;8.53;;;;;;;5.25;88.19;93393.11;827087;71;32548;-79
2021/12/10 05:01:15;;;;;;;10.93;8.48;;;;;;;5.17;88.77;93395.80;826816;71;31882;-79
2021/12/10 05:16:10;;;;;;;12.40;9.28;;;;;;;5.06;89.50;93393.11;827850;71;28669;-75
2021/12/10 05:31:09;;;;;;;11.50;8.33;;;;;;;5.18;89.72;93402.03;833271;71;29177;-78
2021/12/10 05:46:17;;;;;;;18.27;12.70;;;;;;;5.15;89.93;93384.91;833231;71;31809;-77
2021/12/10 06:01:13;;;;;;;20.43;14.75;;;;;;;4.79;90.41;93377.06;827348;71;29161;-79
2021/12/10 06:16:16;;;;;;;23.38;15.60;;;;;;;4.47;92.91;93369.13;826618;71;31814;-78
2021/12/10 06:31:08;;;;;;;22.32;16.05;;;;;;;4.56;93.28;93383.83;828358;71;28814;-80
2021/12/10 06:46:09;;;;;;;23.85;16.87;;;;;;;4.50;93.08;93365.97;833665;71;29147;-77
2021/12/10 07:01:32;;;;;;;25.02;17.80;;;;;;;4.24;94.83;93364.96;827810;71;32245;-78
2021/12/10 07:16:17;;;;;;;24.63;18.50;;;;;;;4.61;94.73;93372.07;825427;71;31855;-78
2021/12/10 07:31:16;;;;;;;23.73;16.85;;;;;;;4.90;94.87;93374.33;828144;71;31749;-78
2021/12/10 07:46:15;;;;;;;35.85;20.77;;;;;;;5.36;94.04;93371.12;834257;71;31843;-78
2021/12/10 08:01:15;;;;;;;28.90;22.32;;;;;;;5.76;93.92;93366.36;828662;71;29231;-78
2021/12/10 08:17:00;;;;;;;29.60;21.68;;;;;;;5.83;94.60;93373.25;779154;72;31774;-79
2021/12/10 08:31:16;;;;;;;29.20;22.02;;;;;;;6.97;93.54;93376.14;832591;71;31896;-79
2021/12/10 08:46:09;;;;;;;38.42;27.42;;;;;;;8.10;90.04;93359.25;833536;71;28664;-77
2021/12/10 09:16:24;;;;;;;78.37;50.03;;;;;;;7.98;83.72;93376.02;835442;71;32704;-78
2021/12/10 09:31:09;;;;;;;102.35;57.30;;;;;;;7.54;83.90;93370.52;827896;71;29791;-75
2021/12/10 09:46:10;;;;;;;80.80;50.38;;;;;;;7.48;84.46;93330.45;833389;71;30775;-77
2021/12/10 10:01:23;;;;;;;68.22;43.83;;;;;;;8.53;82.99;93315.56;833794;71;32708;-77
2021/12/10 10:16:10;;;;;;;67.85;45.45;;;;;;;10.22;80.40;93278.97;828438;71;31162;-78
2021/12/10 10:31:19;;;;;;;47.98;33.70;;;;;;;10.76;74.50;93284.20;826820;71;33259;-77
2021/12/10 10:46:11;;;;;;;40.85;27.87;;;;;;;11.02;73.75;93253.84;827751;71;30079;-79
2021/12/10 11:01:28;;;;;;;47.15;32.13;;;;;;;9.55;74.99;93255.52;827268;71;32741;-78
2021/12/10 11:16:11;;;;;;;53.05;33.63;;;;;;;8.92;77.33;93247.78;828401;71;29538;-77
2021/12/10 11:31:16;;;;;;;48.48;32.75;;;;;;;;;;833770;71;33229;-78
2021/12/10 12:01:12;;;;;;;36.70;25.68;;;;;;;;;;827641;71;30578;-80
2021/12/10 12:16:13;;;;;;;39.05;27.67;;;;;;;8.58;80.62;93202.25;822857;71;27844;-76
2021/12/10 12:31:11;;;;;;;43.92;29.92;;;;;;;;;;827869;71;30638;-78
2021/12/10 12:46:32;;;;;;;35.70;24.23;;;;;;;8.55;81.23;93169.63;826641;71;33179;-78
2021/12/10 13:46:14;;;;;;;43.17;31.15;;;;;;;7.79;82.20;93143.83;833058;71;30055;-76
2021/12/10 14:01:15;;;;;;;45.63;30.17;;;;;;;7.79;82.46;93143.28;835066;71;29814;-77
2021/12/10 14:16:19;;;;;;;46.10;30.70;;;;;;;7.57;82.70;93159.80;826865;71;32709;-76
2021/12/10 14:17:25;;;;;;;46.95;32.10;;;;;;;;;;804473;73;26309;-77
2021/12/10 14:31:20;;;;;;;46.63;31.05;;;;;;;7.40;82.68;93164.93;833388;71;32756;-77
2021/12/10 14:46:14;;;;;;;40.58;27.73;;;;;;;7.20;83.48;93168.84;833444;71;29700;-78
2021/12/10 15:16:27;;;;;;;2.77;2.58;;;;;;;6.84;81.03;93234.86;833457;71;29758;-79
2021/12/10 15:31:10;;;;;;;4.45;4.05;;;;;;;6.70;81.90;93219.27;833200;71;29693;-78
2021/12/10 15:46:17;;;;;;;5.78;5.17;;;;;;;6.55;82.07;93215.16;827609;71;29676;-77
2021/12/10 16:01:17;;;;;;;8.33;7.12;;;;;;;6.15;83.23;93250.09;829109;70;32776;-77
2021/12/10 16:16:18;;;;;;;7.33;6.30;;;;;;;6.12;83.99;93260.31;831962;71;28137;-79
2021/12/10 16:31:20;;;;;;;9.83;7.87;;;;;;;5.89;84.58;93232.09;833544;71;31344;-78
2021/12/10 16:46:17;;;;;;;13.68;10.95;;;;;;;5.88;85.24;93274.78;827207;71;32703;-80
2021/12/10 17:01:11;;;;;;;20.70;15.25;;;;;;;5.73;85.82;93276.59;818048;71;29924;-78
2021/12/10 17:16:34;;;;;;;14.50;10.75;;;;;;;5.72;85.92;93269.86;833074;71;33293;-79
2021/12/10 18:01:36;;;;;;;21.15;15.70;;;;;;;5.78;85.68;93277.82;833498;71;33144;-80
2021/12/10 19:01:27;;;;;;;23.75;18.82;;;;;;;5.18;87.44;93327.93;832753;71;32824;-79
